createdAt,value
2018-02-09T00:00:50.335Z,48.4
2018-02-09T00:17:36.832Z,48.4
2018-02-09T00:34:23.305Z,48.4
2018-02-09T00:51:10.981Z,48.4
2018-02-09T01:07:56.351Z,48.0
2018-02-09T01:24:43.234Z,48.4
2018-02-09T01:41:29.920Z,48.4
2018-02-09T01:58:16.258Z,48.4
2018-02-09T02:15:02.872Z,48.4
2018-02-09T02:28:28.317Z,46.4
2018-02-09T02:45:14.182Z,46.8
2018-02-09T03:02:00.477Z,47.2
2018-02-09T03:18:47.431Z,47.2
2018-02-09T03:35:33.275Z,47.2
2018-02-09T03:52:19.778Z,47.2
2018-02-09T04:09:06.010Z,46.8
2018-02-09T04:25:52.187Z,46.8
2018-02-09T04:42:38.231Z,46.8
2018-02-09T04:59:24.552Z,46.8
2018-02-09T05:16:10.728Z,46.0
2018-02-09T05:32:57.136Z,46.0
2018-02-09T05:49:43.252Z,46.0
2018-02-09T06:06:29.525Z,46.0
2018-02-09T06:23:15.362Z,45.6
2018-02-09T06:40:02.234Z,45.2
2018-02-09T06:56:47.883Z,45.2
2018-02-09T07:13:34.667Z,45.6
2018-02-09T07:30:21.716Z,45.2
2018-02-09T07:47:07.790Z,45.2
2018-02-09T08:03:53.921Z,45.2
2018-02-09T08:20:40.104Z,45.2
2018-02-09T08:37:27.132Z,44.8
2018-02-09T08:50:51.693Z,42.4
2018-02-09T09:07:37.748Z,42.8
2018-02-09T09:24:24.652Z,42.8
2018-02-09T09:41:11.687Z,42.8
2018-02-09T09:57:58.613Z,42.8
2018-02-09T10:14:45.088Z,43.6
2018-02-09T10:31:33.434Z,43.6
2018-02-09T10:48:20.502Z,43.6
2018-02-09T11:05:07.484Z,43.6
2018-02-09T11:21:55.494Z,43.6
2018-02-09T11:38:42.717Z,43.6
2018-02-09T11:55:30.558Z,43.6
2018-02-09T12:12:18.188Z,43.6
2018-02-09T12:29:06.490Z,43.6
2018-02-09T12:45:54.893Z,43.6
2018-02-09T13:02:42.053Z,44.4
2018-02-09T13:19:30.361Z,44.8
2018-02-09T13:36:18.708Z,44.8
2018-02-09T13:53:06.322Z,44.8
2018-02-09T14:09:54.425Z,44.8
2018-02-09T14:26:42.245Z,45.2
2018-02-09T14:43:30.836Z,45.6
2018-02-09T15:00:18.200Z,45.6
2018-02-09T15:05:20.770Z,47.6
2018-02-09T15:22:09.460Z,47.6
2018-02-09T15:38:56.474Z,48.0
2018-02-09T15:55:44.851Z,48.4
2018-02-09T16:12:32.469Z,48.4
2018-02-09T16:29:21.186Z,48.4
2018-02-09T16:46:08.741Z,48.4
2018-02-09T17:02:56.279Z,48.4
2018-02-09T17:19:43.978Z,48.4
2018-02-09T17:36:31.534Z,48.4
2018-02-09T17:53:19.092Z,48.4
2018-02-09T18:10:06.831Z,48.8
2018-02-09T18:26:54.642Z,48.8
2018-02-09T18:43:42.028Z,48.8
2018-02-09T19:00:28.631Z,48.8
2018-02-09T19:17:15.244Z,49.6
2018-02-09T19:34:02.245Z,49.6
2018-02-09T19:50:49.324Z,49.6
2018-02-09T20:07:36.437Z,48.8
2018-02-09T20:24:23.515Z,48.8
2018-02-09T20:41:10.528Z,48.4
2018-02-09T20:57:57.641Z,48.4
2018-02-09T21:14:45.013Z,48.4
2018-02-09T21:31:31.812Z,48.4
2018-02-09T21:48:18.786Z,48.4
2018-02-09T22:05:05.701Z,48.4
2018-02-09T22:21:52.737Z,48.4
2018-02-09T22:38:39.752Z,48.4
2018-02-09T22:55:26.695Z,48.4
2018-02-09T23:12:13.740Z,48.4
2018-02-09T23:29:02.303Z,48.4
2018-02-09T23:45:48.014Z,48.8
